Time;durP1;ratioP1;P1;durP2;ratioP2;P2;SDS_P1;SDS_P2;PMS_P1;PMS_P2;Temp;Humidity;BMP_temperature;BMP_pressure;BME280_temperature;BME280_humidity;BME280_pressure;Samples;Min_cycle;Max_cycle;Signal;HPM_P1;HPM_P2
2023/05/23 00:01:38;;;;;;;39.15;15.82;;;;;;;;;;5059155;28;20832;-79
2023/05/23 00:04:05;;;;;;;36.33;15.30;;;;;;;;;;5068972;28;20048;-79
2023/05/23 00:06:33;;;;;;;36.97;15.82;;;;;;;;;;5067056;28;20086;-78
2023/05/23 00:08:59;;;;;;;31.88;15.05;;;;;;;;;;5064179;28;20047;-79
2023/05/23 00:11:28;;;;;;;34.58;14.77;;;;;;;;;;5068120;28;20540;-79
2023/05/23 00:13:56;;;;;;;33.30;14.23;;;;;;;;;;5072879;28;20044;-78
2023/05/23 00:16:22;;;;;;;36.65;15.48;;;;;;;;;;5069500;28;20041;-79
2023/05/23 00:18:49;;;;;;;44.00;16.60;;;;;;;;;;5072319;28;20090;-78
2023/05/23 00:21:19;;;;;;;42.28;16.38;;;;;;;;;;5074269;28;20119;-79
2023/05/23 00:23:45;;;;;;;40.35;16.60;;;;;;;;;;5065578;28;20044;-78
2023/05/23 00:26:11;;;;;;;39.13;17.30;;;;;;;;;;5056249;28;20072;-79
2023/05/23 00:28:37;;;;;;;35.47;15.80;;;;;;;;;;5072409;28;20072;-79
2023/05/23 00:31:03;;;;;;;30.02;15.45;;;;;;;;;;5066283;28;20060;-81
2023/05/23 00:33:32;;;;;;;37.22;15.82;;;;;;;;;;5058533;28;20509;-81
2023/05/23 00:35:58;;;;;;;41.30;14.82;;;;;;;;;;5072064;28;20047;-82
2023/05/23 00:38:25;;;;;;;38.03;15.25;;;;;;;;;;5072516;28;20044;-82
2023/05/23 00:40:51;;;;;;;34.15;14.90;;;;;;;;;;5061841;28;20119;-82
2023/05/23 00:43:20;;;;;;;35.72;14.38;;;;;;;;;;5072945;28;20503;-82
2023/05/23 00:45:46;;;;;;;37.25;15.05;;;;;;;;;;5062087;28;20143;-82
2023/05/23 00:48:13;;;;;;;32.42;14.35;;;;;;;;;;5052392;28;20044;-80
2023/05/23 00:50:39;;;;;;;34.63;14.00;;;;;;;;;;5053619;28;20124;-79
2023/05/23 00:53:05;;;;;;;29.48;13.85;;;;;;;;;;5062845;28;20048;-79
2023/05/23 00:55:32;;;;;;;37.80;14.20;;;;;;;;;;5045717;28;20076;-79
2023/05/23 00:57:58;;;;;;;32.42;13.98;;;;;;;;;;5044058;28;20110;-80
2023/05/23 01:00:24;;;;;;;28.92;12.80;;;;;;;;;;5056596;28;20116;-79
2023/05/23 01:02:52;;;;;;;29.90;12.05;;;;;;;;;;5054710;28;20079;-79
2023/05/23 01:05:18;;;;;;;32.53;12.18;;;;;;;;;;5053995;28;20052;-79
2023/05/23 01:07:45;;;;;;;30.48;12.18;;;;;;;;;;5054352;28;20075;-80
2023/05/23 01:10:13;;;;;;;28.27;11.77;;;;;;;;;;5054060;28;20048;-79
2023/05/23 01:12:50;;;;;;;30.58;11.55;;;;;;;;;;5053525;28;20040;-79
2023/05/23 01:15:18;;;;;;;25.17;11.57;;;;;;;;;;5060312;28;20397;-80
2023/05/23 01:17:46;;;;;;;28.48;11.05;;;;;;;;;;5052618;28;20611;-79
2023/05/23 01:20:16;;;;;;;30.75;11.65;;;;;;;;;;5055880;28;20447;-79
2023/05/23 01:22:52;;;;;;;26.55;12.18;;;;;;;;;;5052351;28;20513;-79
2023/05/23 01:25:30;;;;;;;35.38;12.50;;;;;;;;;;5067704;28;20152;-79
2023/05/23 01:28:00;;;;;;;31.30;12.35;;;;;;;;;;5050932;28;20041;-81
2023/05/23 01:30:27;;;;;;;25.77;11.23;;;;;;;;;;5024261;28;20568;-82
2023/05/23 01:32:54;;;;;;;30.38;11.85;;;;;;;;;;5063331;28;20072;-81
2023/05/23 01:35:24;;;;;;;24.27;10.68;;;;;;;;;;5040139;28;20051;-81
2023/05/23 01:37:50;;;;;;;24.83;11.52;;;;;;;;;;5056922;28;20094;-82
2023/05/23 01:40:16;;;;;;;30.98;11.63;;;;;;;;;;5051265;28;20051;-81
2023/05/23 01:42:42;;;;;;;25.58;11.60;;;;;;;;;;5066780;28;20040;-78
2023/05/23 01:45:09;;;;;;;24.85;11.40;;;;;;;;;;5052120;28;20036;-79
2023/05/23 01:47:35;;;;;;;21.05;10.25;;;;;;;;;;5050841;28;20044;-79
2023/05/23 01:50:02;;;;;;;26.17;10.68;;;;;;;;;;5053489;28;20087;-79
2023/05/23 01:52:28;;;;;;;26.75;11.18;;;;;;;;;;5051118;28;20036;-78
2023/05/23 01:54:55;;;;;;;25.27;10.15;;;;;;;;;;5053769;28;20048;-79
2023/05/23 01:57:22;;;;;;;25.92;10.38;;;;;;;;;;5059627;28;20041;-79
2023/05/23 01:59:48;;;;;;;26.60;9.77;;;;;;;;;;5051848;28;20102;-78
2023/05/23 02:02:14;;;;;;;24.80;9.88;;;;;;;;;;5045992;28;20445;-82
2023/05/23 02:04:40;;;;;;;22.73;9.90;;;;;;;;;;5042368;28;20041;-81
2023/05/23 02:07:06;;;;;;;25.83;10.43;;;;;;;;;;5060894;28;20044;-82
2023/05/23 02:09:32;;;;;;;26.08;10.27;;;;;;;;;;5034510;28;20428;-81
2023/05/23 02:11:58;;;;;;;22.23;9.60;;;;;;;;;;5050593;28;20477;-81
2023/05/23 02:14:27;;;;;;;21.90;9.70;;;;;;;;;;5051157;28;20398;-81
2023/05/23 02:16:53;;;;;;;24.13;9.80;;;;;;;;;;5050475;28;20052;-81
2023/05/23 02:19:19;;;;;;;23.85;9.23;;;;;;;;;;5051026;28;20045;-78
2023/05/23 02:21:45;;;;;;;24.48;9.88;;;;;;;;;;5050409;28;20052;-78
2023/05/23 02:24:11;;;;;;;23.20;9.95;;;;;;;;;;5050410;28;20506;-78
2023/05/23 02:26:38;;;;;;;23.85;9.15;;;;;;;;;;5050211;28;20104;-78
2023/05/23 02:29:04;;;;;;;26.58;8.93;;;;;;;;;;5050427;28;20052;-79
2023/05/23 02:31:30;;;;;;;24.48;9.60;;;;;;;;;;5050479;28;20045;-78
2023/05/23 02:33:56;;;;;;;19.20;8.63;;;;;;;;;;5050059;28;20040;-79
2023/05/23 02:36:22;;;;;;;24.05;8.80;;;;;;;;;;5050637;28;20083;-79
2023/05/23 02:38:48;;;;;;;26.63;9.10;;;;;;;;;;5051306;28;20044;-78
2023/05/23 02:41:15;;;;;;;21.98;8.65;;;;;;;;;;5052908;28;20543;-79
2023/05/23 02:43:41;;;;;;;18.45;8.18;;;;;;;;;;5071090;28;20040;-79
2023/05/23 02:46:07;;;;;;;24.80;8.95;;;;;;;;;;5054154;28;20040;-78
2023/05/23 02:48:33;;;;;;;25.33;8.60;;;;;;;;;;5070959;28;20092;-79
2023/05/23 02:50:59;;;;;;;21.48;7.82;;;;;;;;;;5054257;28;20048;-79
2023/05/23 02:53:25;;;;;;;23.30;8.10;;;;;;;;;;5057427;28;20075;-78
2023/05/23 02:55:51;;;;;;;21.48;8.13;;;;;;;;;;5053518;28;20435;-79
2023/05/23 02:58:18;;;;;;;19.33;7.93;;;;;;;;;;5058592;28;20040;-79
2023/05/23 03:00:45;;;;;;;24.98;8.38;;;;;;;;;;5067468;28;20124;-78
2023/05/23 03:03:11;;;;;;;25.60;8.13;;;;;;;;;;5040774;28;20043;-79
2023/05/23 03:05:37;;;;;;;25.83;8.50;;;;;;;;;;5055048;28;20044;-79
2023/05/23 03:08:04;;;;;;;26.52;9.23;;;;;;;;;;5060780;28;20044;-79
2023/05/23 03:10:30;;;;;;;18.83;8.25;;;;;;;;;;5067810;28;20050;-79
2023/05/23 03:12:56;;;;;;;21.55;7.88;;;;;;;;;;5059432;28;20116;-79
2023/05/23 03:15:22;;;;;;;27.25;8.38;;;;;;;;;;5062035;28;20449;-78
2023/05/23 03:17:48;;;;;;;27.70;8.60;;;;;;;;;;5054644;28;20102;-79
2023/05/23 03:20:15;;;;;;;23.95;8.38;;;;;;;;;;5048410;28;20048;-78
2023/05/23 03:22:44;;;;;;;22.02;7.85;;;;;;;;;;5055519;28;20041;-79
2023/05/23 03:25:10;;;;;;;20.77;8.20;;;;;;;;;;5054838;28;20091;-79
2023/05/23 03:27:36;;;;;;;20.90;7.93;;;;;;;;;;5036856;28;20041;-79
2023/05/23 03:30:03;;;;;;;21.02;7.90;;;;;;;;;;5026285;28;20045;-79
2023/05/23 03:32:29;;;;;;;23.52;7.47;;;;;;;;;;5053390;28;20128;-79
2023/05/23 03:34:55;;;;;;;26.05;7.90;;;;;;;;;;5057188;28;20044;-79
2023/05/23 03:37:21;;;;;;;22.58;7.13;;;;;;;;;;5043849;28;20056;-79
2023/05/23 03:39:47;;;;;;;23.27;7.60;;;;;;;;;;5054258;28;20041;-79
2023/05/23 03:42:14;;;;;;;20.70;7.03;;;;;;;;;;5062854;28;20045;-81
2023/05/23 03:44:40;;;;;;;15.02;6.78;;;;;;;;;;5056381;28;20041;-82
2023/05/23 03:47:06;;;;;;;20.88;7.13;;;;;;;;;;5030689;28;20041;-81
2023/05/23 03:49:32;;;;;;;18.85;7.18;;;;;;;;;;5042550;28;20041;-82
2023/05/23 03:51:58;;;;;;;21.25;7.25;;;;;;;;;;5035913;28;20036;-81
2023/05/23 03:54:24;;;;;;;23.55;7.35;;;;;;;;;;5042771;28;20045;-81
2023/05/23 03:56:50;;;;;;;23.98;7.03;;;;;;;;;;5052883;28;20558;-81
2023/05/23 03:59:17;;;;;;;23.13;6.47;;;;;;;;;;5054461;28;20109;-82
2023/05/23 04:01:43;;;;;;;19.45;6.57;;;;;;;;;;5058086;28;20044;-82
2023/05/23 04:04:09;;;;;;;25.42;7.05;;;;;;;;;;5060151;28;20078;-82
2023/05/23 04:06:35;;;;;;;20.17;7.13;;;;;;;;;;5060660;28;20080;-81
2023/05/23 04:09:02;;;;;;;21.40;7.05;;;;;;;;;;5056835;28;20083;-83
2023/05/23 04:11:29;;;;;;;25.50;7.35;;;;;;;;;;5054798;28;20049;-82
2023/05/23 04:13:55;;;;;;;20.88;6.53;;;;;;;;;;5035958;28;20041;-82
2023/05/23 04:16:22;;;;;;;19.48;6.60;;;;;;;;;;5036654;28;20037;-81
2023/05/23 04:18:48;;;;;;;18.17;6.63;;;;;;;;;;5052958;28;20041;-81
2023/05/23 04:21:15;;;;;;;16.30;6.57;;;;;;;;;;5053090;28;20041;-81
2023/05/23 04:23:41;;;;;;;16.80;5.78;;;;;;;;;;5054117;28;20045;-81
2023/05/23 04:26:08;;;;;;;14.05;5.53;;;;;;;;;;5052191;28;20056;-81
2023/05/23 04:28:36;;;;;;;14.82;5.53;;;;;;;;;;5036338;28;20053;-81
2023/05/23 04:31:02;;;;;;;18.40;5.82;;;;;;;;;;5038675;28;20045;-81
2023/05/23 04:33:29;;;;;;;17.65;5.45;;;;;;;;;;5053233;28;20095;-79
2023/05/23 04:35:56;;;;;;;15.13;4.88;;;;;;;;;;5053446;28;20052;-78
2023/05/23 04:38:23;;;;;;;17.90;5.30;;;;;;;;;;5054024;28;20051;-79
2023/05/23 04:40:51;;;;;;;14.15;4.50;;;;;;;;;;5052658;28;20089;-79
2023/05/23 04:43:18;;;;;;;14.05;5.10;;;;;;;;;;5052249;28;20087;-78
2023/05/23 04:45:45;;;;;;;18.02;5.95;;;;;;;;;;5052447;28;20055;-79
2023/05/23 04:48:15;;;;;;;15.75;4.60;;;;;;;;;;5052021;28;20444;-79
2023/05/23 04:50:42;;;;;;;17.38;5.07;;;;;;;;;;5036700;28;20095;-78
2023/05/23 04:53:08;;;;;;;16.00;4.65;;;;;;;;;;5052722;28;20094;-79
2023/05/23 04:55:34;;;;;;;16.30;4.53;;;;;;;;;;5036146;28;20080;-79
2023/05/23 04:58:02;;;;;;;22.38;5.22;;;;;;;;;;5035049;28;20036;-78
2023/05/23 05:00:29;;;;;;;17.30;5.00;;;;;;;;;;5062518;28;20072;-80
2023/05/23 05:02:55;;;;;;;13.07;4.93;;;;;;;;;;5054870;28;20413;-79
2023/05/23 05:05:21;;;;;;;16.05;4.88;;;;;;;;;;5065358;28;20451;-78
2023/05/23 05:07:47;;;;;;;15.55;4.88;;;;;;;;;;5035924;28;20041;-79
2023/05/23 05:10:15;;;;;;;15.18;4.88;;;;;;;;;;5052866;28;20516;-78
2023/05/23 05:12:45;;;;;;;15.32;4.72;;;;;;;;;;5038487;28;20037;-79
2023/05/23 05:15:12;;;;;;;18.50;5.43;;;;;;;;;;5035974;28;20051;-79
2023/05/23 05:17:39;;;;;;;13.63;5.63;;;;;;;;;;5035915;28;20052;-79
2023/05/23 05:20:09;;;;;;;14.70;5.10;;;;;;;;;;5034700;28;20056;-79
2023/05/23 05:22:38;;;;;;;14.90;5.35;;;;;;;;;;5052832;28;20098;-79
2023/05/23 05:25:06;;;;;;;17.02;5.47;;;;;;;;;;5052971;28;20120;-79
2023/05/23 05:27:32;;;;;;;13.52;5.28;;;;;;;;;;5038731;28;20520;-78
2023/05/23 05:30:03;;;;;;;14.25;5.47;;;;;;;;;;5034885;28;20083;-79
2023/05/23 05:32:33;;;;;;;11.98;4.97;;;;;;;;;;5051459;28;20094;-78
2023/05/23 05:35:02;;;;;;;13.45;5.45;;;;;;;;;;5048913;28;20044;-79
2023/05/23 05:37:29;;;;;;;15.45;5.55;;;;;;;;;;5035947;28;20052;-80
2023/05/23 05:39:55;;;;;;;17.27;6.20;;;;;;;;;;5034483;28;20052;-79
2023/05/23 05:42:22;;;;;;;20.42;5.93;;;;;;;;;;5037518;28;20114;-79
2023/05/23 05:44:48;;;;;;;16.52;5.45;;;;;;;;;;5050734;28;20056;-79
2023/05/23 05:47:14;;;;;;;20.00;6.60;;;;;;;;;;5041423;28;20389;-78
2023/05/23 05:49:41;;;;;;;16.05;5.72;;;;;;;;;;5054274;28;20041;-80
2023/05/23 05:52:07;;;;;;;11.23;4.93;;;;;;;;;;5052045;28;20593;-79
2023/05/23 05:54:33;;;;;;;14.40;5.07;;;;;;;;;;5033209;28;20036;-79
2023/05/23 05:56:59;;;;;;;13.88;4.97;;;;;;;;;;5033959;28;20482;-80
2023/05/23 05:59:25;;;;;;;12.30;5.53;;;;;;;;;;5050213;28;20517;-80
2023/05/23 06:01:52;;;;;;;16.52;4.80;;;;;;;;;;5022164;28;20037;-80
2023/05/23 06:04:18;;;;;;;10.68;4.15;;;;;;;;;;5050291;28;20068;-79
2023/05/23 06:06:44;;;;;;;13.95;4.97;;;;;;;;;;5034277;28;20037;-80
2023/05/23 06:09:10;;;;;;;13.02;4.10;;;;;;;;;;5036588;28;20029;-79
2023/05/23 06:11:40;;;;;;;13.38;4.43;;;;;;;;;;5050704;28;20504;-80
2023/05/23 06:14:06;;;;;;;13.32;3.97;;;;;;;;;;5050157;28;20041;-80
2023/05/23 06:16:32;;;;;;;13.02;3.83;;;;;;;;;;5050231;28;20041;-79
2023/05/23 06:18:59;;;;;;;13.57;3.70;;;;;;;;;;5050541;28;20037;-79
2023/05/23 06:21:25;;;;;;;13.25;3.63;;;;;;;;;;5050415;28;20584;-79
2023/05/23 06:23:51;;;;;;;11.85;3.50;;;;;;;;;;5034121;28;20084;-79
2023/05/23 06:26:18;;;;;;;16.63;3.72;;;;;;;;;;5040157;28;20052;-79
2023/05/23 06:28:44;;;;;;;17.25;4.28;;;;;;;;;;5037948;28;20081;-79
2023/05/23 06:31:11;;;;;;;12.10;3.20;;;;;;;;;;5052399;28;20119;-79
2023/05/23 06:33:37;;;;;;;16.83;2.97;;;;;;;;;;5050402;28;20040;-79
2023/05/23 06:36:03;;;;;;;15.60;3.95;;;;;;;;;;5050634;28;20543;-80
2023/05/23 06:38:32;;;;;;;18.00;3.10;;;;;;;;;;5049612;28;20045;-79
2023/05/23 06:40:58;;;;;;;12.48;2.88;;;;;;;;;;5050103;28;20102;-79
2023/05/23 06:43:25;;;;;;;12.07;3.42;;;;;;;;;;5050681;28;20132;-79
2023/05/23 06:45:51;;;;;;;13.30;2.90;;;;;;;;;;5052245;28;20072;-79
2023/05/23 06:48:17;;;;;;;14.13;3.40;;;;;;;;;;5051417;28;20110;-80
2023/05/23 06:50:43;;;;;;;14.00;3.00;;;;;;;;;;5051002;28;20048;-82
2023/05/23 06:53:09;;;;;;;13.07;3.58;;;;;;;;;;5051028;28;20037;-82
2023/05/23 06:55:35;;;;;;;14.40;3.28;;;;;;;;;;5050263;28;20048;-82
2023/05/23 06:58:03;;;;;;;16.58;3.50;;;;;;;;;;5063828;28;20044;-83
2023/05/23 07:00:30;;;;;;;14.52;3.28;;;;;;;;;;5051049;28;20444;-81
2023/05/23 07:02:59;;;;;;;17.05;3.35;;;;;;;;;;5051230;28;20060;-82
2023/05/23 07:05:27;;;;;;;15.75;2.92;;;;;;;;;;5061322;28;20146;-82
2023/05/23 07:07:53;;;;;;;16.52;3.45;;;;;;;;;;5061082;28;20481;-82
2023/05/23 07:10:19;;;;;;;14.15;2.97;;;;;;;;;;5057233;28;20059;-81
2023/05/23 07:12:46;;;;;;;12.30;3.42;;;;;;;;;;5051483;28;20037;-80
2023/05/23 07:15:13;;;;;;;16.42;3.00;;;;;;;;;;5050004;28;20044;-80
2023/05/23 07:17:40;;;;;;;14.68;3.28;;;;;;;;;;5050074;28;20076;-80
2023/05/23 07:20:07;;;;;;;17.48;3.08;;;;;;;;;;5050347;28;20071;-80
2023/05/23 07:22:33;;;;;;;18.73;3.28;;;;;;;;;;5017202;28;20045;-80
2023/05/23 07:24:59;;;;;;;15.75;3.70;;;;;;;;;;5050001;28;20083;-80
2023/05/23 07:27:26;;;;;;;18.58;2.70;;;;;;;;;;5050724;28;20053;-80
2023/05/23 07:29:52;;;;;;;11.65;3.47;;;;;;;;;;5062374;28;20033;-79
2023/05/23 07:32:18;;;;;;;17.83;3.05;;;;;;;;;;5053643;28;20049;-80
2023/05/23 07:34:44;;;;;;;12.15;2.90;;;;;;;;;;5053866;28;20041;-79
2023/05/23 07:37:11;;;;;;;11.13;2.95;;;;;;;;;;5054056;28;20574;-80
2023/05/23 07:39:37;;;;;;;16.10;3.15;;;;;;;;;;5054723;28;20421;-80
2023/05/23 07:42:03;;;;;;;15.23;2.80;;;;;;;;;;5053806;28;20041;-79
2023/05/23 07:44:29;;;;;;;16.10;3.25;;;;;;;;;;5053380;28;20142;-80
2023/05/23 07:46:55;;;;;;;18.48;3.17;;;;;;;;;;5053485;28;20486;-79
2023/05/23 07:49:21;;;;;;;13.45;2.85;;;;;;;;;;5037913;28;20036;-79
2023/05/23 07:51:47;;;;;;;15.88;2.72;;;;;;;;;;5040911;28;20116;-80
2023/05/23 07:54:13;;;;;;;16.25;3.05;;;;;;;;;;5087393;28;20489;-79
2023/05/23 07:56:39;;;;;;;16.40;3.20;;;;;;;;;;5053396;28;20431;-80
2023/05/23 07:59:07;;;;;;;18.10;4.10;;;;;;;;;;5053533;28;20045;-80
2023/05/23 08:01:33;;;;;;;19.13;3.03;;;;;;;;;;5050432;28;20087;-80
2023/05/23 08:03:59;;;;;;;17.23;3.75;;;;;;;;;;5054514;28;20040;-80
2023/05/23 08:06:25;;;;;;;17.02;3.17;;;;;;;;;;5053284;28;20458;-79
2023/05/23 08:08:52;;;;;;;13.77;3.15;;;;;;;;;;5053427;28;20041;-79
2023/05/23 08:11:18;;;;;;;17.13;3.03;;;;;;;;;;5054506;28;20083;-80
2023/05/23 08:13:44;;;;;;;12.35;2.70;;;;;;;;;;5053016;28;20063;-80
2023/05/23 08:16:10;;;;;;;13.88;2.92;;;;;;;;;;5052995;28;20049;-80
2023/05/23 08:18:36;;;;;;;17.75;3.58;;;;;;;;;;5036430;28;20551;-80
2023/05/23 08:21:03;;;;;;;15.60;3.20;;;;;;;;;;5054646;28;20044;-79
2023/05/23 08:23:29;;;;;;;14.88;3.50;;;;;;;;;;5036434;28;20045;-80
2023/05/23 08:25:56;;;;;;;13.60;3.08;;;;;;;;;;5036204;28;20060;-79
2023/05/23 08:28:22;;;;;;;20.40;3.55;;;;;;;;;;5036671;28;20041;-80
2023/05/23 08:30:48;;;;;;;16.60;3.85;;;;;;;;;;5052569;28;20037;-80
2023/05/23 08:33:14;;;;;;;13.02;3.20;;;;;;;;;;5054420;28;20036;-79
2023/05/23 08:35:40;;;;;;;13.93;3.20;;;;;;;;;;5052838;28;20504;-78
2023/05/23 08:38:07;;;;;;;13.77;3.67;;;;;;;;;;5019630;28;20041;-77
2023/05/23 08:40:34;;;;;;;14.32;3.33;;;;;;;;;;5052708;28;20053;-79
2023/05/23 08:43:01;;;;;;;13.70;3.42;;;;;;;;;;5037204;28;20037;-78
2023/05/23 08:45:29;;;;;;;10.20;3.03;;;;;;;;;;5052143;28;20045;-78
2023/05/23 08:47:55;;;;;;;14.30;3.40;;;;;;;;;;5086133;28;20120;-78
2023/05/23 08:50:21;;;;;;;15.43;3.50;;;;;;;;;;5052763;28;20055;-79
2023/05/23 08:52:54;;;;;;;12.35;3.17;;;;;;;;;;5052391;28;20528;-78
2023/05/23 08:55:21;;;;;;;11.52;2.95;;;;;;;;;;5036227;28;20045;-78
2023/05/23 08:57:47;;;;;;;10.75;3.15;;;;;;;;;;5052157;28;20048;-78
2023/05/23 09:00:15;;;;;;;15.48;3.13;;;;;;;;;;5036170;28;20037;-78
2023/05/23 09:02:45;;;;;;;11.25;3.08;;;;;;;;;;5053328;28;20045;-78
2023/05/23 09:05:12;;;;;;;13.43;3.35;;;;;;;;;;5053610;28;20124;-78
2023/05/23 09:07:39;;;;;;;11.88;3.08;;;;;;;;;;5035023;28;20087;-79
2023/05/23 09:10:06;;;;;;;16.73;3.50;;;;;;;;;;5052247;28;20041;-78
2023/05/23 09:12:35;;;;;;;11.32;3.13;;;;;;;;;;5058610;28;20526;-78
2023/05/23 09:15:01;;;;;;;10.82;3.22;;;;;;;;;;5053800;28;20438;-78
2023/05/23 09:17:27;;;;;;;11.82;3.30;;;;;;;;;;5051460;28;20131;-78
2023/05/23 09:19:53;;;;;;;13.68;3.13;;;;;;;;;;5052962;28;20041;-79
2023/05/23 09:22:25;;;;;;;13.77;3.22;;;;;;;;;;5053058;28;20430;-78
2023/05/23 09:24:52;;;;;;;13.93;3.30;;;;;;;;;;5034600;28;20049;-79
2023/05/23 09:27:18;;;;;;;15.15;2.63;;;;;;;;;;5051586;28;20045;-79
2023/05/23 09:29:46;;;;;;;12.27;2.67;;;;;;;;;;5044985;28;20044;-79
2023/05/23 09:32:18;;;;;;;13.88;3.03;;;;;;;;;;5045610;28;20116;-79
2023/05/23 09:35:04;;;;;;;9.10;2.58;;;;;;;;;;5053007;28;20037;-79
2023/05/23 09:37:31;;;;;;;9.32;2.45;;;;;;;;;;5052415;28;20051;-78
2023/05/23 09:39:59;;;;;;;10.18;2.50;;;;;;;;;;5052565;28;20060;-78
2023/05/23 09:42:25;;;;;;;13.10;3.05;;;;;;;;;;5053506;28;20522;-79
2023/05/23 09:44:53;;;;;;;9.73;2.40;;;;;;;;;;5064063;28;20535;-79
2023/05/23 09:47:19;;;;;;;12.77;2.70;;;;;;;;;;5052212;28;20047;-78
2023/05/23 09:49:46;;;;;;;13.18;2.70;;;;;;;;;;5053496;28;20505;-79
2023/05/23 09:52:13;;;;;;;12.85;3.17;;;;;;;;;;5051929;28;20041;-79
2023/05/23 09:54:39;;;;;;;10.73;2.40;;;;;;;;;;5052194;28;20041;-79
2023/05/23 09:57:18;;;;;;;12.70;2.70;;;;;;;;;;5051966;28;20040;-78
2023/05/23 09:59:47;;;;;;;13.07;2.55;;;;;;;;;;5052159;28;20114;-78
2023/05/23 10:02:15;;;;;;;9.18;2.33;;;;;;;;;;5051957;28;20033;-79
2023/05/23 10:04:42;;;;;;;12.93;2.80;;;;;;;;;;5057981;28;20052;-79
2023/05/23 10:07:16;;;;;;;12.25;2.72;;;;;;;;;;5035509;28;20068;-79
2023/05/23 10:09:45;;;;;;;10.27;2.35;;;;;;;;;;5040689;28;20393;-77
2023/05/23 10:12:11;;;;;;;14.48;2.47;;;;;;;;;;5051276;28;20052;-79
2023/05/23 10:14:38;;;;;;;12.52;2.70;;;;;;;;;;5052125;28;20397;-79
2023/05/23 10:17:09;;;;;;;11.85;2.65;;;;;;;;;;5051940;28;20049;-78
2023/05/23 10:19:43;;;;;;;12.98;3.25;;;;;;;;;;5052416;28;20044;-79
2023/05/23 10:22:10;;;;;;;14.43;2.60;;;;;;;;;;5051098;28;20506;-79
2023/05/23 10:24:37;;;;;;;14.25;2.58;;;;;;;;;;5052803;28;20057;-80
2023/05/23 10:27:03;;;;;;;11.85;3.20;;;;;;;;;;5051796;28;20047;-80
2023/05/23 10:29:32;;;;;;;16.52;2.85;;;;;;;;;;5051148;28;20064;-80
2023/05/23 10:31:59;;;;;;;11.95;2.83;;;;;;;;;;5051294;28;20041;-80
2023/05/23 10:34:29;;;;;;;9.00;2.60;;;;;;;;;;5055660;28;20318;-81
2023/05/23 10:36:59;;;;;;;11.88;2.63;;;;;;;;;;5061303;28;20770;-81
2023/05/23 10:39:32;;;;;;;12.63;2.78;;;;;;;;;;5050714;28;20043;-80
2023/05/23 10:42:08;;;;;;;14.30;2.55;;;;;;;;;;5050574;28;20072;-81
2023/05/23 10:44:36;;;;;;;9.10;2.15;;;;;;;;;;5084228;28;20045;-81
2023/05/23 10:47:03;;;;;;;12.77;2.30;;;;;;;;;;5049544;28;20087;-78
2023/05/23 10:49:40;;;;;;;14.18;2.92;;;;;;;;;;5049861;28;20127;-79
2023/05/23 10:52:06;;;;;;;13.90;2.83;;;;;;;;;;5050399;28;20049;-79
2023/05/23 10:54:46;;;;;;;7.60;2.50;;;;;;;;;;5050891;28;20417;-79
2023/05/23 10:57:16;;;;;;;13.70;2.67;;;;;;;;;;5050500;28;20049;-80
2023/05/23 10:59:42;;;;;;;13.65;2.70;;;;;;;;;;5050280;28;20558;-81
2023/05/23 11:02:15;;;;;;;14.07;3.00;;;;;;;;;;5052973;28;20069;-81
2023/05/23 11:04:41;;;;;;;17.85;3.70;;;;;;;;;;5053435;28;20041;-81
2023/05/23 11:07:26;;;;;;;15.63;3.38;;;;;;;;;;5088404;28;20036;-79
2023/05/23 11:10:05;;;;;;;10.15;3.08;;;;;;;;;;5054126;28;20440;-81
2023/05/23 11:12:41;;;;;;;16.52;2.50;;;;;;;;;;5087958;28;20071;-81
2023/05/23 11:15:16;;;;;;;17.92;3.13;;;;;;;;;;5054315;28;20036;-80
2023/05/23 11:17:50;;;;;;;13.20;2.97;;;;;;;;;;5054392;28;20109;-81
2023/05/23 11:20:22;;;;;;;10.25;2.60;;;;;;;;;;5053733;28;20118;-81
2023/05/23 11:23:08;;;;;;;11.20;2.50;;;;;;;;;;5038467;28;20049;-80
2023/05/23 11:25:41;;;;;;;11.48;2.50;;;;;;;;;;5053563;28;20080;-81
2023/05/23 11:28:07;;;;;;;11.77;2.55;;;;;;;;;;5037859;28;20501;-81
2023/05/23 11:30:35;;;;;;;14.02;3.05;;;;;;;;;;5054949;28;20091;-81
2023/05/23 11:33:07;;;;;;;10.80;2.33;;;;;;;;;;5070960;28;20486;-81
2023/05/23 11:35:33;;;;;;;14.00;2.70;;;;;;;;;;5038245;28;20131;-81
2023/05/23 11:37:59;;;;;;;12.95;2.70;;;;;;;;;;5054976;28;20041;-81
2023/05/23 11:40:26;;;;;;;8.70;2.38;;;;;;;;;;5054273;28;20064;-81
2023/05/23 11:42:56;;;;;;;10.95;2.50;;;;;;;;;;5056492;28;20076;-81
2023/05/23 11:45:22;;;;;;;13.70;2.85;;;;;;;;;;5053358;28;20049;-80
2023/05/23 11:47:48;;;;;;;13.85;2.80;;;;;;;;;;5053807;28;20048;-81
2023/05/23 11:50:15;;;;;;;14.07;2.63;;;;;;;;;;5056387;28;20414;-80
2023/05/23 11:52:41;;;;;;;13.55;2.40;;;;;;;;;;5058764;28;20135;-82
2023/05/23 11:55:08;;;;;;;9.80;2.13;;;;;;;;;;5054309;28;20080;-82
2023/05/23 11:57:37;;;;;;;10.32;2.10;;;;;;;;;;5037926;28;20127;-81
2023/05/23 12:00:06;;;;;;;14.50;2.60;;;;;;;;;;5036753;28;20508;-80
2023/05/23 12:02:38;;;;;;;8.63;2.28;;;;;;;;;;5039086;28;20048;-81
2023/05/23 12:05:08;;;;;;;14.38;2.25;;;;;;;;;;5052744;28;20075;-81
2023/05/23 12:07:35;;;;;;;11.25;2.30;;;;;;;;;;5053050;28;20561;-80
2023/05/23 12:10:02;;;;;;;9.50;2.28;;;;;;;;;;5056023;28;20375;-80
2023/05/23 12:12:29;;;;;;;13.60;2.83;;;;;;;;;;5046226;28;20503;-80
2023/05/23 12:14:56;;;;;;;13.20;2.65;;;;;;;;;;5053689;28;20390;-81
2023/05/23 12:17:22;;;;;;;15.77;2.63;;;;;;;;;;5055599;28;20056;-80
2023/05/23 12:19:48;;;;;;;13.00;2.60;;;;;;;;;;5055116;28;20040;-81
2023/05/23 12:22:15;;;;;;;12.32;2.85;;;;;;;;;;5054211;28;20040;-81
2023/05/23 12:24:47;;;;;;;10.23;2.85;;;;;;;;;;5052245;28;20385;-80
2023/05/23 12:27:13;;;;;;;10.90;2.67;;;;;;;;;;5054283;28;20498;-81
2023/05/23 12:29:39;;;;;;;12.00;2.45;;;;;;;;;;5053974;28;20474;-80
2023/05/23 12:32:07;;;;;;;9.20;2.58;;;;;;;;;;5053378;28;20068;-80
2023/05/23 12:34:33;;;;;;;9.35;2.45;;;;;;;;;;5056111;28;20049;-80
2023/05/23 12:37:02;;;;;;;10.80;2.75;;;;;;;;;;5057376;28;20045;-80
2023/05/23 12:39:29;;;;;;;11.70;2.28;;;;;;;;;;5054374;28;20041;-81
2023/05/23 12:41:57;;;;;;;12.10;3.05;;;;;;;;;;5037125;28;20119;-80
2023/05/23 12:44:23;;;;;;;9.20;2.47;;;;;;;;;;5054864;28;20049;-81
2023/05/23 12:46:49;;;;;;;10.90;2.20;;;;;;;;;;5052712;28;20036;-80
2023/05/23 12:49:15;;;;;;;9.57;2.38;;;;;;;;;;5035906;28;20049;-81
2023/05/23 12:51:42;;;;;;;11.75;2.40;;;;;;;;;;5056782;28;20072;-81
2023/05/23 12:54:08;;;;;;;11.10;2.40;;;;;;;;;;5053477;28;20033;-80
2023/05/23 12:56:34;;;;;;;14.18;2.75;;;;;;;;;;5054088;28;20044;-81
2023/05/23 12:59:03;;;;;;;9.43;2.40;;;;;;;;;;5051495;28;20073;-80
2023/05/23 13:01:29;;;;;;;8.43;2.00;;;;;;;;;;5035138;28;20064;-81
2023/05/23 13:03:55;;;;;;;9.48;1.60;;;;;;;;;;5052841;28;20130;-81
2023/05/23 13:06:22;;;;;;;9.43;2.10;;;;;;;;;;5054320;28;20041;-80
2023/05/23 13:08:49;;;;;;;10.07;2.13;;;;;;;;;;5049763;28;20087;-81
2023/05/23 13:11:16;;;;;;;5.32;1.55;;;;;;;;;;5039979;28;20049;-81
2023/05/23 13:13:42;;;;;;;11.15;2.55;;;;;;;;;;5052397;28;20541;-81
2023/05/23 13:16:09;;;;;;;7.75;1.95;;;;;;;;;;5051988;28;20045;-81
2023/05/23 13:18:35;;;;;;;9.25;2.15;;;;;;;;;;5052077;28;20095;-82
2023/05/23 13:21:01;;;;;;;11.77;2.40;;;;;;;;;;5050868;28;20041;-82
2023/05/23 13:23:28;;;;;;;12.45;2.20;;;;;;;;;;5051630;28;20501;-81
2023/05/23 13:25:56;;;;;;;9.90;2.00;;;;;;;;;;5050544;28;20049;-81
2023/05/23 13:28:23;;;;;;;8.82;1.77;;;;;;;;;;5052611;28;20508;-81
2023/05/23 13:30:49;;;;;;;7.85;1.80;;;;;;;;;;5035376;28;20045;-82
2023/05/23 13:33:15;;;;;;;13.57;2.13;;;;;;;;;;5051406;28;20041;-81
2023/05/23 13:35:42;;;;;;;7.60;1.90;;;;;;;;;;5035319;28;20041;-81
2023/05/23 13:38:09;;;;;;;9.13;1.98;;;;;;;;;;5035814;28;20505;-80
2023/05/23 13:40:35;;;;;;;17.60;2.15;;;;;;;;;;5051601;28;20052;-81
2023/05/23 13:43:01;;;;;;;13.07;1.80;;;;;;;;;;5051093;28;20069;-82
2023/05/23 13:45:29;;;;;;;9.02;1.98;;;;;;;;;;5035102;28;20486;-81
2023/05/23 13:47:55;;;;;;;8.80;2.17;;;;;;;;;;5054663;28;20115;-79
2023/05/23 13:50:22;;;;;;;9.85;2.00;;;;;;;;;;5050742;28;20071;-81
2023/05/23 13:52:48;;;;;;;11.43;2.35;;;;;;;;;;5049977;28;20033;-81
2023/05/23 13:55:14;;;;;;;8.60;2.28;;;;;;;;;;5051387;28;20059;-80
2023/05/23 13:57:40;;;;;;;10.77;2.50;;;;;;;;;;5051764;28;20049;-80
2023/05/23 14:00:07;;;;;;;12.77;2.38;;;;;;;;;;5051811;28;20112;-81
2023/05/23 14:02:33;;;;;;;12.85;2.38;;;;;;;;;;5050238;28;20032;-81
2023/05/23 14:04:59;;;;;;;12.07;2.13;;;;;;;;;;5063497;28;20048;-81
2023/05/23 14:07:26;;;;;;;10.82;2.28;;;;;;;;;;5051217;28;20041;-81
2023/05/23 14:09:52;;;;;;;7.28;2.13;;;;;;;;;;5084844;28;20134;-81
2023/05/23 14:12:18;;;;;;;11.55;2.63;;;;;;;;;;5050662;28;20504;-81
2023/05/23 14:14:44;;;;;;;9.85;2.42;;;;;;;;;;5052162;28;20041;-81
2023/05/23 14:17:14;;;;;;;10.30;1.88;;;;;;;;;;5050403;28;20049;-82
2023/05/23 14:19:41;;;;;;;9.07;2.00;;;;;;;;;;5051251;28;20064;-81
2023/05/23 14:22:07;;;;;;;7.82;1.75;;;;;;;;;;5050191;28;20072;-81
2023/05/23 14:24:33;;;;;;;10.38;1.95;;;;;;;;;;5050193;28;20080;-81
2023/05/23 14:27:01;;;;;;;9.32;2.20;;;;;;;;;;5053250;28;20040;-80
2023/05/23 14:29:27;;;;;;;11.95;2.25;;;;;;;;;;5050165;28;20504;-81